sensor_id;sensor_type;location;lat;lon;timestamp;P1;P2;P0
45788;PMS7003;31492;54.856;26.318;2022-09-09T02:13:56;1;1;0.3
45788;PMS7003;31492;54.856;26.318;2022-09-09T02:19:01;0.8;0.8;0.5
45788;PMS7003;31492;54.856;26.318;2022-09-09T02:23:51;1;1;0.6
45788;PMS7003;31492;54.856;26.318;2022-09-09T02:28:52;1.2;0.8;0.6
45788;PMS7003;31492;54.856;26.318;2022-09-09T02:33:56;1;0.8;0.4
45788;PMS7003;31492;54.856;26.318;2022-09-09T02:38:49;1;0.8;0.5
45788;PMS7003;31492;54.856;26.318;2022-09-09T02:43:45;1.6;0.8;0.8
45788;PMS7003;31492;54.856;26.318;2022-09-09T02:49:06;0.8;0.6;0.4
45788;PMS7003;31492;54.856;26.318;2022-09-09T02:54:59;1.2;1;0.4
45788;PMS7003;31492;54.856;26.318;2022-09-09T02:58:57;0.8;0.8;0.6
45788;PMS7003;31492;54.856;26.318;2022-09-09T03:03:53;0.3;0.3;0.3
45788;PMS7003;31492;54.856;26.318;2022-09-09T03:08:43;1.2;1;0.6
45788;PMS7003;31492;54.856;26.318;2022-09-09T03:13:54;1;0.8;0.4
45788;PMS7003;31492;54.856;26.318;2022-09-09T03:18:51;1.2;0.6;0.4
45788;PMS7003;31492;54.856;26.318;2022-09-09T03:23:53;1.3;1;0.8
45788;PMS7003;31492;54.856;26.318;2022-09-09T03:28:42;1.4;0.8;0.8
45788;PMS7003;31492;54.856;26.318;2022-09-09T03:33:57;1.2;1;0.8
45788;PMS7003;31492;54.856;26.318;2022-09-09T03:38:52;0.8;0.6;0.6
45788;PMS7003;31492;54.856;26.318;2022-09-09T03:43:51;2.8;1.5;1
45788;PMS7003;31492;54.856;26.318;2022-09-09T03:48:57;1.4;0.6;0.6
45788;PMS7003;31492;54.856;26.318;2022-09-09T03:53:55;1.6;1.2;0.8
45788;PMS7003;31492;54.856;26.318;2022-09-09T03:58:45;9.2;7.8;7.2
45788;PMS7003;31492;54.856;26.318;2022-09-09T04:03:45;7.5;7.3;6.3
45788;PMS7003;31492;54.856;26.318;2022-09-09T04:08:53;3.8;3.8;3.4
45788;PMS7003;31492;54.856;26.318;2022-09-09T04:13:55;2.6;2.4;2
45788;PMS7003;31492;54.856;26.318;2022-09-09T04:18:57;1.6;1;1
45788;PMS7003;31492;54.856;26.318;2022-09-09T04:23:55;8.3;7.3;6
45788;PMS7003;31492;54.856;26.318;2022-09-09T04:28:57;52.2;45;27.2
45788;PMS7003;31492;54.856;26.318;2022-09-09T04:33:57;46.8;38.6;24
45788;PMS7003;31492;54.856;26.318;2022-09-09T04:38:53;37;31;21
45788;PMS7003;31492;54.856;26.318;2022-09-09T04:43:57;68.5;59.6;35
45788;PMS7003;31492;54.856;26.318;2022-09-09T04:48:55;74.6;59;36.8
45788;PMS7003;31492;54.856;26.318;2022-09-09T04:53:51;82.8;69.4;43.6
45788;PMS7003;31492;54.856;26.318;2022-09-09T04:58:59;51.4;41.4;27
45788;PMS7003;31492;54.856;26.318;2022-09-09T05:03:55;29;25.8;16.6
45788;PMS7003;31492;54.856;26.318;2022-09-09T05:08:59;16.3;14.5;11
45788;PMS7003;31492;54.856;26.318;2022-09-09T05:13:59;13.4;11.2;8.8
45788;PMS7003;31492;54.856;26.318;2022-09-09T05:18:57;12.6;10;8.6
45788;PMS7003;31492;54.856;26.318;2022-09-09T05:23:59;33.2;28.2;20.4
45788;PMS7003;31492;54.856;26.318;2022-09-09T05:29:01;36.5;32.5;23.3
45788;PMS7003;31492;54.856;26.318;2022-09-09T05:33:30;49.4;42;29
45788;PMS7003;31492;54.856;26.318;2022-09-09T05:39:01;25.4;23.6;17.6
45788;PMS7003;31492;54.856;26.318;2022-09-09T05:43:59;41.6;33.6;22.6
45788;PMS7003;31492;54.856;26.318;2022-09-09T05:48:59;30;26.5;17.3
45788;PMS7003;31492;54.856;26.318;2022-09-09T05:53:55;25.4;21.4;13.6
45788;PMS7003;31492;54.856;26.318;2022-09-09T05:58:55;10.8;10;6.8
45788;PMS7003;31492;54.856;26.318;2022-09-09T06:03:25;2.8;2;1.6
45788;PMS7003;31492;54.856;26.318;2022-09-09T06:08:54;1.3;1;0.8
45788;PMS7003;31492;54.856;26.318;2022-09-09T06:13:55;9.2;8.8;6.6
45788;PMS7003;31492;54.856;26.318;2022-09-09T06:18:56;10.2;9.2;6.2
45788;PMS7003;31492;54.856;26.318;2022-09-09T06:23:59;6.2;4.8;4.6
45788;PMS7003;31492;54.856;26.318;2022-09-09T06:28:58;2.8;1.8;1.2
45788;PMS7003;31492;54.856;26.318;2022-09-09T06:33:56;0.8;0.8;0.5
45788;PMS7003;31492;54.856;26.318;2022-09-09T06:38:59;1;1;0.4
45788;PMS7003;31492;54.856;26.318;2022-09-09T06:43:59;1.2;1.2;0.8
45788;PMS7003;31492;54.856;26.318;2022-09-09T06:49:01;0.6;0.6;0.4
45788;PMS7003;31492;54.856;26.318;2022-09-09T06:54:02;0.8;0.8;0.5
45788;PMS7003;31492;54.856;26.318;2022-09-09T06:59:03;0.4;0.4;0.4
45788;PMS7003;31492;54.856;26.318;2022-09-09T07:04:00;0.2;0.2;0
45788;PMS7003;31492;54.856;26.318;2022-09-09T07:08:56;0.6;0.4;0.2
45788;PMS7003;31492;54.856;26.318;2022-09-09T07:14:01;0.3;0.3;0.3
45788;PMS7003;31492;54.856;26.318;2022-09-09T07:18:59;0.2;0.2;0.2
45788;PMS7003;31492;54.856;26.318;2022-09-09T07:23:57;0.4;0.4;0.2
45788;PMS7003;31492;54.856;26.318;2022-09-09T07:29:03;0;0;0
45788;PMS7003;31492;54.856;26.318;2022-09-09T07:34:00;0.3;0;0
45788;PMS7003;31492;54.856;26.318;2022-09-09T07:39:03;0;0;0
45788;PMS7003;31492;54.856;26.318;2022-09-09T07:44:10;0.4;0.2;0
45788;PMS7003;31492;54.856;26.318;2022-09-09T07:48:59;0.2;0;0
45788;PMS7003;31492;54.856;26.318;2022-09-09T07:54:04;0;0;0
45788;PMS7003;31492;54.856;26.318;2022-09-09T07:58:59;0;0;0
45788;PMS7003;31492;54.856;26.318;2022-09-09T08:03:15;0.2;0;0
45788;PMS7003;31492;54.856;26.318;2022-09-09T08:08:59;0;0;0
45788;PMS7003;31492;54.856;26.318;2022-09-09T08:14:02;0;0;0
45788;PMS7003;31492;54.856;26.318;2022-09-09T08:19:02;0;0;0
45788;PMS7003;31492;54.856;26.318;2022-09-09T08:23:58;0;0;0
45788;PMS7003;31492;54.856;26.318;2022-09-09T08:28:58;0.2;0;0
45788;PMS7003;31492;54.856;26.318;2022-09-09T08:34:00;0;0;0
45788;PMS7003;31492;54.856;26.318;2022-09-09T08:39:02;0;0;0
45788;PMS7003;31492;54.856;26.318;2022-09-09T08:44:04;0;0;0
45788;PMS7003;31492;54.856;26.318;2022-09-09T08:49:04;0;0;0
45788;PMS7003;31492;54.856;26.318;2022-09-09T08:54:05;0;0;0
45788;PMS7003;31492;54.856;26.318;2022-09-09T08:58:54;0;0;0
45788;PMS7003;31492;54.856;26.318;2022-09-09T09:04:05;0.6;0.4;0.2
45788;PMS7003;31492;54.856;26.318;2022-09-09T09:09:06;0;0;0
45788;PMS7003;31492;54.856;26.318;2022-09-09T09:14:10;0.4;0;0
45788;PMS7003;31492;54.856;26.318;2022-09-09T09:19:03;0;0;0
45788;PMS7003;31492;54.856;26.318;2022-09-09T09:23:58;0;0;0
45788;PMS7003;31492;54.856;26.318;2022-09-09T09:28:59;0;0;0
45788;PMS7003;31492;54.856;26.318;2022-09-09T09:33:44;0;0;0
45788;PMS7003;31492;54.856;26.318;2022-09-09T09:38:57;0.3;0;0
45788;PMS7003;31492;54.856;26.318;2022-09-09T09:44:02;0;0;0
45788;PMS7003;31492;54.856;26.318;2022-09-09T09:48:56;0;0;0
45788;PMS7003;31492;54.856;26.318;2022-09-09T09:54:04;0;0;0
45788;PMS7003;31492;54.856;26.318;2022-09-09T09:58:58;0;0;0
45788;PMS7003;31492;54.856;26.318;2022-09-09T10:03:58;0.5;0;0
45788;PMS7003;31492;54.856;26.318;2022-09-09T10:08:57;0.4;0;0
45788;PMS7003;31492;54.856;26.318;2022-09-09T10:14:30;0;0;0
45788;PMS7003;31492;54.856;26.318;2022-09-09T10:19:46;0;0;0
45788;PMS7003;31492;54.856;26.318;2022-09-09T10:24:07;0;0;0
45788;PMS7003;31492;54.856;26.318;2022-09-09T10:29:18;0;0;0
45788;PMS7003;31492;54.856;26.318;2022-09-09T10:40:02;0;0;0
45788;PMS7003;31492;54.856;26.318;2022-09-09T10:44:18;0;0;0
45788;PMS7003;31492;54.856;26.318;2022-09-09T10:49:40;0;0;0
45788;PMS7003;31492;54.856;26.318;2022-09-09T10:59:02;0;0;0
45788;PMS7003;31492;54.856;26.318;2022-09-09T11:03:29;0;0;0
45788;PMS7003;31492;54.856;26.318;2022-09-09T11:09:03;0;0;0
45788;PMS7003;31492;54.856;26.318;2022-09-09T11:14:03;0;0;0
45788;PMS7003;31492;54.856;26.318;2022-09-09T11:18:58;0;0;0
45788;PMS7003;31492;54.856;26.318;2022-09-09T11:23:59;0;0;0
45788;PMS7003;31492;54.856;26.318;2022-09-09T11:29:03;0;0;0
45788;PMS7003;31492;54.856;26.318;2022-09-09T11:34:09;0;0;0
45788;PMS7003;31492;54.856;26.318;2022-09-09T11:39:16;0;0;0
45788;PMS7003;31492;54.856;26.318;2022-09-09T11:43:59;0;0;0
45788;PMS7003;31492;54.856;26.318;2022-09-09T11:49:00;0;0;0
45788;PMS7003;31492;54.856;26.318;2022-09-09T11:54:01;0.2;0;0
45788;PMS7003;31492;54.856;26.318;2022-09-09T11:59:28;0.4;0.4;0.4
45788;PMS7003;31492;54.856;26.318;2022-09-09T12:03:39;0;0;0
45788;PMS7003;31492;54.856;26.318;2022-09-09T12:08:57;0.3;0;0
45788;PMS7003;31492;54.856;26.318;2022-09-09T12:13:59;0;0;0
45788;PMS7003;31492;54.856;26.318;2022-09-09T12:19:03;0;0;0
45788;PMS7003;31492;54.856;26.318;2022-09-09T12:23:47;0;0;0
45788;PMS7003;31492;54.856;26.318;2022-09-09T12:28:58;0.3;0.3;0.3
45788;PMS7003;31492;54.856;26.318;2022-09-09T12:33:46;0.2;0;0
45788;PMS7003;31492;54.856;26.318;2022-09-09T12:38:46;0;0;0
45788;PMS7003;31492;54.856;26.318;2022-09-09T12:44:05;0;0;0
45788;PMS7003;31492;54.856;26.318;2022-09-09T12:48:59;0;0;0
45788;PMS7003;31492;54.856;26.318;2022-09-09T12:54:02;0.2;0;0
45788;PMS7003;31492;54.856;26.318;2022-09-09T12:59:01;0;0;0
45788;PMS7003;31492;54.856;26.318;2022-09-09T13:03:58;0;0;0
45788;PMS7003;31492;54.856;26.318;2022-09-09T13:08:26;0;0;0
45788;PMS7003;31492;54.856;26.318;2022-09-09T13:13:58;0;0;0
45788;PMS7003;31492;54.856;26.318;2022-09-09T13:19:06;0.2;0;0
45788;PMS7003;31492;54.856;26.318;2022-09-09T13:24:04;0;0;0
45788;PMS7003;31492;54.856;26.318;2022-09-09T13:29:09;0;0;0
45788;PMS7003;31492;54.856;26.318;2022-09-09T13:33:57;0;0;0
45788;PMS7003;31492;54.856;26.318;2022-09-09T13:38:58;0;0;0
45788;PMS7003;31492;54.856;26.318;2022-09-09T13:44:00;0;0;0
45788;PMS7003;31492;54.856;26.318;2022-09-09T13:49:02;0;0;0
45788;PMS7003;31492;54.856;26.318;2022-09-09T13:53:56;0;0;0
45788;PMS7003;31492;54.856;26.318;2022-09-09T13:58:59;0.4;0.2;0
45788;PMS7003;31492;54.856;26.318;2022-09-09T14:03:29;0;0;0
45788;PMS7003;31492;54.856;26.318;2022-09-09T14:08:58;0;0;0
45788;PMS7003;31492;54.856;26.318;2022-09-09T14:13:50;0;0;0
45788;PMS7003;31492;54.856;26.318;2022-09-09T14:19:07;0.2;0;0
45788;PMS7003;31492;54.856;26.318;2022-09-09T14:24:04;0.2;0.2;0
45788;PMS7003;31492;54.856;26.318;2022-09-09T14:28:58;0;0;0
45788;PMS7003;31492;54.856;26.318;2022-09-09T14:33:55;0.8;0;0
45788;PMS7003;31492;54.856;26.318;2022-09-09T14:39:02;0;0;0
45788;PMS7003;31492;54.856;26.318;2022-09-09T14:43:56;0.2;0.2;0
45788;PMS7003;31492;54.856;26.318;2022-09-09T14:48:58;0.8;0;0
45788;PMS7003;31492;54.856;26.318;2022-09-09T14:53:58;0;0;0
45788;PMS7003;31492;54.856;26.318;2022-09-09T14:58:56;0;0;0
45788;PMS7003;31492;54.856;26.318;2022-09-09T15:03:49;0.6;0;0
45788;PMS7003;31492;54.856;26.318;2022-09-09T15:08:56;0.2;0.2;0
45788;PMS7003;31492;54.856;26.318;2022-09-09T15:14:00;1;0.6;0.4
45788;PMS7003;31492;54.856;26.318;2022-09-09T15:19:02;0.8;0.8;0.5
45788;PMS7003;31492;54.856;26.318;2022-09-09T15:23:56;1.4;0.8;0.4
45788;PMS7003;31492;54.856;26.318;2022-09-09T15:29:04;1;0.6;0.2
45788;PMS7003;31492;54.856;26.318;2022-09-09T15:34:00;26.6;21.6;14.2
45788;PMS7003;31492;54.856;26.318;2022-09-09T15:39:00;47.8;39.8;28
45788;PMS7003;31492;54.856;26.318;2022-09-09T15:43:58;39.6;34.4;27
45788;PMS7003;31492;54.856;26.318;2022-09-09T15:49:11;57.2;46.4;35.6
45788;PMS7003;31492;54.856;26.318;2022-09-09T15:54:02;58.2;48;36.2
45788;PMS7003;31492;54.856;26.318;2022-09-09T15:59:00;48.5;40.8;31
45788;PMS7003;31492;54.856;26.318;2022-09-09T16:04:00;41.8;36.6;28
45788;PMS7003;31492;54.856;26.318;2022-09-09T16:08:58;28.2;26.8;21.6
45788;PMS7003;31492;54.856;26.318;2022-09-09T16:13:58;27.4;26;21
45788;PMS7003;31492;54.856;26.318;2022-09-09T16:19:00;20.3;18.5;16
45788;PMS7003;31492;54.856;26.318;2022-09-09T16:23:59;7.2;7;6.8
45788;PMS7003;31492;54.856;26.318;2022-09-09T16:29:00;3.8;3.6;3.4
45788;PMS7003;31492;54.856;26.318;2022-09-09T16:34:00;2.2;2.2;1.8
45788;PMS7003;31492;54.856;26.318;2022-09-09T16:38:58;2.5;2.3;1.8
45788;PMS7003;31492;54.856;26.318;2022-09-09T16:44:05;61.2;50;34
45788;PMS7003;31492;54.856;26.318;2022-09-09T16:49:03;93.4;84;58.8
45788;PMS7003;31492;54.856;26.318;2022-09-09T16:54:00;73.4;62.6;41.4
45788;PMS7003;31492;54.856;26.318;2022-09-09T16:58:58;68.8;58.8;38.4
45788;PMS7003;31492;54.856;26.318;2022-09-09T17:03:59;44.8;37;25
45788;PMS7003;31492;54.856;26.318;2022-09-09T17:09:03;36.4;32;21
45788;PMS7003;31492;54.856;26.318;2022-09-09T17:14:00;96;85.6;55
45788;PMS7003;31492;54.856;26.318;2022-09-09T17:19:00;53.2;43.8;29.8
45788;PMS7003;31492;54.856;26.318;2022-09-09T17:23:58;17;15;11.5
45788;PMS7003;31492;54.856;26.318;2022-09-09T17:28:59;13.2;11.2;8.6
45788;PMS7003;31492;54.856;26.318;2022-09-09T17:34:00;121.8;104.8;56.8
45788;PMS7003;31492;54.856;26.318;2022-09-09T17:38:58;173.4;155.8;95.6
45788;PMS7003;31492;54.856;26.318;2022-09-09T17:43:48;235.8;215;144
45788;PMS7003;31492;54.856;26.318;2022-09-09T17:49:01;197.6;184.2;126.2
45788;PMS7003;31492;54.856;26.318;2022-09-09T17:54:04;138.4;127;90.6
45788;PMS7003;31492;54.856;26.318;2022-09-09T17:59:06;190.2;169.2;108
45788;PMS7003;31492;54.856;26.318;2022-09-09T18:04:07;279;246.8;158.5
45788;PMS7003;31492;54.856;26.318;2022-09-09T18:09:05;85;74.4;49.8
45788;PMS7003;31492;54.856;26.318;2022-09-09T18:14:01;250.4;226.4;143.6
45788;PMS7003;31492;54.856;26.318;2022-09-09T18:19:04;105.4;94.8;63.6
45788;PMS7003;31492;54.856;26.318;2022-09-09T18:24:06;59;48.3;32.8
45788;PMS7003;31492;54.856;26.318;2022-09-09T18:29:01;65.6;54.2;37.6
45788;PMS7003;31492;54.856;26.318;2022-09-09T18:34:00;80.6;71.8;51
45788;PMS7003;31492;54.856;26.318;2022-09-09T18:38:57;53.2;42.8;30
45788;PMS7003;31492;54.856;26.318;2022-09-09T18:44:03;51.6;42.8;30.6
45788;PMS7003;31492;54.856;26.318;2022-09-09T18:48:58;38.8;33.3;23.5
45788;PMS7003;31492;54.856;26.318;2022-09-09T18:53:59;14.4;13.8;10.6
45788;PMS7003;31492;54.856;26.318;2022-09-09T18:59:00;7.2;6.4;5
45788;PMS7003;31492;54.856;26.318;2022-09-09T19:04:00;3.6;3.4;2.6
45788;PMS7003;31492;54.856;26.318;2022-09-09T19:08:58;2.5;1.8;1.5
45788;PMS7003;31492;54.856;26.318;2022-09-09T19:14:04;1.8;1.2;0.8
45788;PMS7003;31492;54.856;26.318;2022-09-09T19:18:58;1.6;1;1
45788;PMS7003;31492;54.856;26.318;2022-09-09T19:24:03;1.2;0.8;0.6
45788;PMS7003;31492;54.856;26.318;2022-09-09T19:28:58;1.8;1;0.8
45788;PMS7003;31492;54.856;26.318;2022-09-09T19:33:58;1.2;0.6;0.6
45788;PMS7003;31492;54.856;26.318;2022-09-09T19:39:00;1.2;1;0.2
45788;PMS7003;31492;54.856;26.318;2022-09-09T19:43:58;1.6;0.8;0.6
45788;PMS7003;31492;54.856;26.318;2022-09-09T19:48:58;1;0.3;0.3
45788;PMS7003;31492;54.856;26.318;2022-09-09T19:54:00;0.8;0.8;0.6
45788;PMS7003;31492;54.856;26.318;2022-09-09T19:59:02;0.8;0.8;0.8
45788;PMS7003;31492;54.856;26.318;2022-09-09T20:03:46;2;1;0.8
45788;PMS7003;31492;54.856;26.318;2022-09-09T20:08:58;0.5;0.3;0.3
45788;PMS7003;31492;54.856;26.318;2022-09-09T20:14:02;1;0.8;0.8
45788;PMS7003;31492;54.856;26.318;2022-09-09T20:18:59;1.6;1.2;0.6
45788;PMS7003;31492;54.856;26.318;2022-09-09T20:24:05;1.8;1.4;0.4
45788;PMS7003;31492;54.856;26.318;2022-09-09T20:29:05;1.2;1;0.6
45788;PMS7003;31492;54.856;26.318;2022-09-09T20:34:04;1.3;1;0.8
45788;PMS7003;31492;54.856;26.318;2022-09-09T20:39:04;0.8;0.8;0.8
45788;PMS7003;31492;54.856;26.318;2022-09-09T20:43:59;0.8;0.8;0.6
45788;PMS7003;31492;54.856;26.318;2022-09-09T20:49:04;1.2;0.8;0.4
45788;PMS7003;31492;54.856;26.318;2022-09-09T20:54:08;1.5;1;1
45788;PMS7003;31492;54.856;26.318;2022-09-09T20:59:00;1.6;1.4;0.8
45788;PMS7003;31492;54.856;26.318;2022-09-09T21:04:00;0.2;0.2;0
45788;PMS7003;31492;54.856;26.318;2022-09-09T21:08:52;1;1;0.6
45788;PMS7003;31492;54.856;26.318;2022-09-09T21:14:00;1;1;1
45788;PMS7003;31492;54.856;26.318;2022-09-09T21:18:56;1.2;1;0.8
45788;PMS7003;31492;54.856;26.318;2022-09-09T21:23:58;0.8;0.8;0.6
45788;PMS7003;31492;54.856;26.318;2022-09-09T21:29:02;0.8;0.6;0.4
45788;PMS7003;31492;54.856;26.318;2022-09-09T21:34:00;1.8;0.8;0.5
45788;PMS7003;31492;54.856;26.318;2022-09-09T21:39:00;1.8;1;0.8
45788;PMS7003;31492;54.856;26.318;2022-09-09T21:44:04;2.2;2.2;2
45788;PMS7003;31492;54.856;26.318;2022-09-09T21:49:02;1;1;1
45788;PMS7003;31492;54.856;26.318;2022-09-09T21:54:00;1;1;0.8
45788;PMS7003;31492;54.856;26.318;2022-09-09T21:58:59;2.2;1.8;1.4
45788;PMS7003;31492;54.856;26.318;2022-09-09T22:03:58;1.8;1.6;1
45788;PMS7003;31492;54.856;26.318;2022-09-09T22:08:58;1.4;1.4;1.2
45788;PMS7003;31492;54.856;26.318;2022-09-09T22:14:04;2.2;1.6;1.6
45788;PMS7003;31492;54.856;26.318;2022-09-09T22:18:58;1.8;1.5;1.3
45788;PMS7003;31492;54.856;26.318;2022-09-09T22:23:57;2.2;1.4;1
45788;PMS7003;31492;54.856;26.318;2022-09-09T22:28:58;2;1.6;1.2
45788;PMS7003;31492;54.856;26.318;2022-09-09T22:33:50;1.4;1.4;1.2
45788;PMS7003;31492;54.856;26.318;2022-09-09T22:39:02;1.3;1;1
